sensor_id;sensor_type;location;lat;lon;timestamp;P1;durP1;ratioP1;P2;durP2;ratioP2
16246;SDS011;8231;50.866;7.944;2024-01-27T00:01:36;10.27;;;3.13;;
16246;SDS011;8231;50.866;7.944;2024-01-27T00:04:04;10.73;;;3.35;;
16246;SDS011;8231;50.866;7.944;2024-01-27T00:06:32;12.52;;;4.20;;
16246;SDS011;8231;50.866;7.944;2024-01-27T00:09:02;12.50;;;6.82;;
16246;SDS011;8231;50.866;7.944;2024-01-27T00:11:33;15.35;;;4.88;;
16246;SDS011;8231;50.866;7.944;2024-01-27T00:14:01;13.02;;;3.83;;
16246;SDS011;8231;50.866;7.944;2024-01-27T00:16:30;13.35;;;3.90;;
16246;SDS011;8231;50.866;7.944;2024-01-27T00:18:59;9.23;;;3.35;;
16246;SDS011;8231;50.866;7.944;2024-01-27T00:21:28;15.23;;;3.72;;
16246;SDS011;8231;50.866;7.944;2024-01-27T00:23:56;6.95;;;2.95;;
16246;SDS011;8231;50.866;7.944;2024-01-27T00:26:27;13.88;;;3.85;;
16246;SDS011;8231;50.866;7.944;2024-01-27T00:28:57;6.90;;;2.72;;
16246;SDS011;8231;50.866;7.944;2024-01-27T00:31:25;12.10;;;4.40;;
16246;SDS011;8231;50.866;7.944;2024-01-27T00:33:53;12.55;;;3.67;;
16246;SDS011;8231;50.866;7.944;2024-01-27T00:36:22;10.55;;;4.82;;
16246;SDS011;8231;50.866;7.944;2024-01-27T00:38:50;14.68;;;7.47;;
16246;SDS011;8231;50.866;7.944;2024-01-27T00:41:19;9.63;;;4.22;;
16246;SDS011;8231;50.866;7.944;2024-01-27T00:43:47;12.40;;;5.55;;
16246;SDS011;8231;50.866;7.944;2024-01-27T00:46:17;13.48;;;4.63;;
16246;SDS011;8231;50.866;7.944;2024-01-27T00:48:45;15.50;;;6.28;;
16246;SDS011;8231;50.866;7.944;2024-01-27T00:51:13;10.02;;;3.75;;
16246;SDS011;8231;50.866;7.944;2024-01-27T00:53:42;11.88;;;4.15;;
16246;SDS011;8231;50.866;7.944;2024-01-27T00:56:10;11.30;;;3.78;;
16246;SDS011;8231;50.866;7.944;2024-01-27T00:58:38;9.18;;;3.40;;
16246;SDS011;8231;50.866;7.944;2024-01-27T01:01:07;8.30;;;3.47;;
16246;SDS011;8231;50.866;7.944;2024-01-27T01:03:36;9.02;;;3.58;;
16246;SDS011;8231;50.866;7.944;2024-01-27T01:06:05;17.23;;;4.55;;
16246;SDS011;8231;50.866;7.944;2024-01-27T01:08:33;9.65;;;3.80;;
16246;SDS011;8231;50.866;7.944;2024-01-27T01:11:01;11.77;;;4.40;;
16246;SDS011;8231;50.866;7.944;2024-01-27T01:13:29;11.15;;;4.30;;
16246;SDS011;8231;50.866;7.944;2024-01-27T01:15:57;11.20;;;3.35;;
16246;SDS011;8231;50.866;7.944;2024-01-27T01:18:25;10.55;;;3.67;;
16246;SDS011;8231;50.866;7.944;2024-01-27T01:20:55;9.27;;;3.60;;
16246;SDS011;8231;50.866;7.944;2024-01-27T01:23:23;10.25;;;4.45;;
16246;SDS011;8231;50.866;7.944;2024-01-27T01:25:51;8.77;;;4.95;;
16246;SDS011;8231;50.866;7.944;2024-01-27T01:28:19;11.70;;;4.13;;
16246;SDS011;8231;50.866;7.944;2024-01-27T01:30:47;12.93;;;4.13;;
16246;SDS011;8231;50.866;7.944;2024-01-27T01:33:16;9.02;;;4.03;;
16246;SDS011;8231;50.866;7.944;2024-01-27T01:35:44;9.48;;;2.92;;
16246;SDS011;8231;50.866;7.944;2024-01-27T01:38:14;11.73;;;3.13;;
16246;SDS011;8231;50.866;7.944;2024-01-27T01:40:43;8.70;;;3.35;;
16246;SDS011;8231;50.866;7.944;2024-01-27T01:43:11;10.80;;;3.00;;
16246;SDS011;8231;50.866;7.944;2024-01-27T01:45:39;6.97;;;2.60;;
16246;SDS011;8231;50.866;7.944;2024-01-27T01:48:08;6.55;;;2.67;;
16246;SDS011;8231;50.866;7.944;2024-01-27T01:50:36;8.55;;;3.40;;
16246;SDS011;8231;50.866;7.944;2024-01-27T01:53:04;8.35;;;2.90;;
16246;SDS011;8231;50.866;7.944;2024-01-27T01:55:36;7.60;;;2.47;;
16246;SDS011;8231;50.866;7.944;2024-01-27T01:58:04;8.20;;;3.30;;
16246;SDS011;8231;50.866;7.944;2024-01-27T02:00:33;5.88;;;3.13;;
16246;SDS011;8231;50.866;7.944;2024-01-27T02:03:01;11.68;;;3.78;;
16246;SDS011;8231;50.866;7.944;2024-01-27T02:05:30;10.23;;;3.30;;
16246;SDS011;8231;50.866;7.944;2024-01-27T02:07:59;5.50;;;3.03;;
16246;SDS011;8231;50.866;7.944;2024-01-27T02:10:28;8.48;;;2.60;;
16246;SDS011;8231;50.866;7.944;2024-01-27T02:13:04;10.52;;;3.55;;
16246;SDS011;8231;50.866;7.944;2024-01-27T02:15:44;3.40;;;2.85;;
16246;SDS011;8231;50.866;7.944;2024-01-27T02:18:12;7.28;;;2.85;;
16246;SDS011;8231;50.866;7.944;2024-01-27T02:20:41;7.57;;;3.78;;
16246;SDS011;8231;50.866;7.944;2024-01-27T02:23:09;5.85;;;2.83;;
16246;SDS011;8231;50.866;7.944;2024-01-27T02:25:39;4.25;;;3.20;;
16246;SDS011;8231;50.866;7.944;2024-01-27T02:28:07;10.35;;;3.78;;
16246;SDS011;8231;50.866;7.944;2024-01-27T02:30:36;4.72;;;3.25;;
16246;SDS011;8231;50.866;7.944;2024-01-27T02:33:04;8.20;;;3.40;;
16246;SDS011;8231;50.866;7.944;2024-01-27T02:35:33;10.00;;;4.00;;
16246;SDS011;8231;50.866;7.944;2024-01-27T02:38:01;14.77;;;3.90;;
16246;SDS011;8231;50.866;7.944;2024-01-27T02:40:30;11.10;;;3.92;;
16246;SDS011;8231;50.866;7.944;2024-01-27T02:42:59;6.13;;;3.67;;
16246;SDS011;8231;50.866;7.944;2024-01-27T02:45:27;10.50;;;4.20;;
16246;SDS011;8231;50.866;7.944;2024-01-27T02:47:55;7.77;;;3.83;;
16246;SDS011;8231;50.866;7.944;2024-01-27T02:50:24;8.27;;;4.13;;
16246;SDS011;8231;50.866;7.944;2024-01-27T02:52:52;7.47;;;4.27;;
16246;SDS011;8231;50.866;7.944;2024-01-27T02:55:20;11.15;;;4.03;;
16246;SDS011;8231;50.866;7.944;2024-01-27T02:57:48;7.90;;;4.57;;
16246;SDS011;8231;50.866;7.944;2024-01-27T03:00:17;6.87;;;3.93;;
16246;SDS011;8231;50.866;7.944;2024-01-27T03:02:46;8.40;;;4.30;;
16246;SDS011;8231;50.866;7.944;2024-01-27T03:05:14;12.97;;;4.87;;
16246;SDS011;8231;50.866;7.944;2024-01-27T03:07:42;9.30;;;4.90;;
16246;SDS011;8231;50.866;7.944;2024-01-27T03:10:10;7.27;;;4.10;;
16246;SDS011;8231;50.866;7.944;2024-01-27T03:12:38;6.43;;;5.07;;
16246;SDS011;8231;50.866;7.944;2024-01-27T03:15:07;8.43;;;4.50;;
16246;SDS011;8231;50.866;7.944;2024-01-27T03:17:37;9.37;;;4.57;;
16246;SDS011;8231;50.866;7.944;2024-01-27T03:20:06;20.10;;;5.43;;
16246;SDS011;8231;50.866;7.944;2024-01-27T03:22:36;10.53;;;5.37;;
16246;SDS011;8231;50.866;7.944;2024-01-27T03:25:04;12.13;;;5.83;;
16246;SDS011;8231;50.866;7.944;2024-01-27T03:27:33;9.03;;;4.37;;
16246;SDS011;8231;50.866;7.944;2024-01-27T03:30:02;13.33;;;5.17;;
16246;SDS011;8231;50.866;7.944;2024-01-27T03:32:31;8.30;;;4.47;;
16246;SDS011;8231;50.866;7.944;2024-01-27T03:35:00;17.90;;;5.77;;
16246;SDS011;8231;50.866;7.944;2024-01-27T03:37:30;20.90;;;6.33;;
16246;SDS011;8231;50.866;7.944;2024-01-27T03:39:58;11.53;;;5.67;;
16246;SDS011;8231;50.866;7.944;2024-01-27T03:42:26;10.87;;;5.70;;
16246;SDS011;8231;50.866;7.944;2024-01-27T03:44:54;9.13;;;4.83;;
16246;SDS011;8231;50.866;7.944;2024-01-27T03:47:22;12.83;;;5.50;;
16246;SDS011;8231;50.866;7.944;2024-01-27T03:49:51;14.07;;;5.80;;
16246;SDS011;8231;50.866;7.944;2024-01-27T03:52:21;12.03;;;5.13;;
16246;SDS011;8231;50.866;7.944;2024-01-27T03:54:49;9.10;;;5.30;;
16246;SDS011;8231;50.866;7.944;2024-01-27T03:57:17;15.40;;;6.83;;
16246;SDS011;8231;50.866;7.944;2024-01-27T03:59:46;7.30;;;5.73;;
16246;SDS011;8231;50.866;7.944;2024-01-27T04:02:14;10.17;;;5.17;;
16246;SDS011;8231;50.866;7.944;2024-01-27T04:04:42;10.27;;;5.23;;
16246;SDS011;8231;50.866;7.944;2024-01-27T04:07:10;6.67;;;4.73;;
16246;SDS011;8231;50.866;7.944;2024-01-27T04:09:40;9.50;;;4.80;;
16246;SDS011;8231;50.866;7.944;2024-01-27T04:12:08;13.30;;;5.50;;
16246;SDS011;8231;50.866;7.944;2024-01-27T04:14:36;13.63;;;6.07;;
16246;SDS011;8231;50.866;7.944;2024-01-27T04:17:04;8.23;;;5.47;;
16246;SDS011;8231;50.866;7.944;2024-01-27T04:19:32;12.97;;;5.37;;
16246;SDS011;8231;50.866;7.944;2024-01-27T04:22:00;7.63;;;5.20;;
16246;SDS011;8231;50.866;7.944;2024-01-27T04:24:29;7.50;;;4.67;;
16246;SDS011;8231;50.866;7.944;2024-01-27T04:26:59;8.60;;;5.67;;
16246;SDS011;8231;50.866;7.944;2024-01-27T04:29:29;8.27;;;5.50;;
16246;SDS011;8231;50.866;7.944;2024-01-27T04:31:57;13.53;;;5.70;;
16246;SDS011;8231;50.866;7.944;2024-01-27T04:34:25;7.57;;;5.07;;
16246;SDS011;8231;50.866;7.944;2024-01-27T04:36:53;8.77;;;5.37;;
16246;SDS011;8231;50.866;7.944;2024-01-27T04:39:21;7.13;;;4.67;;
16246;SDS011;8231;50.866;7.944;2024-01-27T04:41:50;8.53;;;4.77;;
16246;SDS011;8231;50.866;7.944;2024-01-27T04:44:19;11.53;;;5.13;;
16246;SDS011;8231;50.866;7.944;2024-01-27T04:46:47;10.30;;;5.33;;
16246;SDS011;8231;50.866;7.944;2024-01-27T04:49:16;12.10;;;5.80;;
16246;SDS011;8231;50.866;7.944;2024-01-27T04:51:44;11.33;;;4.90;;
16246;SDS011;8231;50.866;7.944;2024-01-27T04:54:12;18.90;;;5.67;;
16246;SDS011;8231;50.866;7.944;2024-01-27T04:56:41;8.60;;;5.40;;
16246;SDS011;8231;50.866;7.944;2024-01-27T04:59:09;10.83;;;5.20;;
16246;SDS011;8231;50.866;7.944;2024-01-27T05:01:38;14.70;;;5.03;;
16246;SDS011;8231;50.866;7.944;2024-01-27T05:04:06;9.97;;;4.83;;
16246;SDS011;8231;50.866;7.944;2024-01-27T05:06:35;10.03;;;6.17;;
16246;SDS011;8231;50.866;7.944;2024-01-27T05:09:05;14.00;;;5.07;;
16246;SDS011;8231;50.866;7.944;2024-01-27T05:11:34;9.40;;;5.63;;
16246;SDS011;8231;50.866;7.944;2024-01-27T05:14:02;13.27;;;6.33;;
16246;SDS011;8231;50.866;7.944;2024-01-27T05:16:30;10.63;;;4.37;;
16246;SDS011;8231;50.866;7.944;2024-01-27T05:19:01;8.97;;;4.93;;
16246;SDS011;8231;50.866;7.944;2024-01-27T05:21:29;7.50;;;4.27;;
16246;SDS011;8231;50.866;7.944;2024-01-27T05:23:58;7.60;;;4.50;;
16246;SDS011;8231;50.866;7.944;2024-01-27T05:30:45;7.13;;;4.60;;
16246;SDS011;8231;50.866;7.944;2024-01-27T05:33:13;10.50;;;3.33;;
16246;SDS011;8231;50.866;7.944;2024-01-27T05:35:44;8.87;;;5.70;;
16246;SDS011;8231;50.866;7.944;2024-01-27T05:38:12;9.13;;;3.60;;
16246;SDS011;8231;50.866;7.944;2024-01-27T05:40:40;6.97;;;3.07;;
16246;SDS011;8231;50.866;7.944;2024-01-27T05:43:08;10.33;;;5.03;;
16246;SDS011;8231;50.866;7.944;2024-01-27T05:45:37;7.20;;;3.60;;
16246;SDS011;8231;50.866;7.944;2024-01-27T05:48:05;9.03;;;4.53;;
16246;SDS011;8231;50.866;7.944;2024-01-27T05:50:34;7.53;;;4.17;;
16246;SDS011;8231;50.866;7.944;2024-01-27T05:53:04;7.63;;;3.63;;
16246;SDS011;8231;50.866;7.944;2024-01-27T05:55:33;8.53;;;3.63;;
16246;SDS011;8231;50.866;7.944;2024-01-27T05:58:01;9.87;;;3.20;;
16246;SDS011;8231;50.866;7.944;2024-01-27T06:00:29;10.33;;;3.67;;
16246;SDS011;8231;50.866;7.944;2024-01-27T06:02:57;10.57;;;3.70;;
16246;SDS011;8231;50.866;7.944;2024-01-27T06:05:26;8.57;;;3.83;;
16246;SDS011;8231;50.866;7.944;2024-01-27T06:07:54;5.63;;;3.30;;
16246;SDS011;8231;50.866;7.944;2024-01-27T06:10:24;9.50;;;3.63;;
16246;SDS011;8231;50.866;7.944;2024-01-27T06:12:52;10.57;;;3.57;;
16246;SDS011;8231;50.866;7.944;2024-01-27T06:15:20;6.63;;;4.27;;
16246;SDS011;8231;50.866;7.944;2024-01-27T06:17:49;14.73;;;4.00;;
16246;SDS011;8231;50.866;7.944;2024-01-27T06:20:17;7.83;;;4.60;;
16246;SDS011;8231;50.866;7.944;2024-01-27T06:22:45;9.13;;;4.20;;
16246;SDS011;8231;50.866;7.944;2024-01-27T06:25:14;13.30;;;3.67;;
16246;SDS011;8231;50.866;7.944;2024-01-27T06:27:44;13.40;;;3.57;;
16246;SDS011;8231;50.866;7.944;2024-01-27T06:30:13;7.07;;;2.80;;
16246;SDS011;8231;50.866;7.944;2024-01-27T06:32:42;8.63;;;3.07;;
16246;SDS011;8231;50.866;7.944;2024-01-27T06:35:10;6.27;;;3.33;;
16246;SDS011;8231;50.866;7.944;2024-01-27T06:37:38;6.33;;;3.67;;
16246;SDS011;8231;50.866;7.944;2024-01-27T06:40:06;15.23;;;3.87;;
16246;SDS011;8231;50.866;7.944;2024-01-27T06:42:35;9.83;;;3.43;;
16246;SDS011;8231;50.866;7.944;2024-01-27T06:45:05;9.17;;;3.37;;
16246;SDS011;8231;50.866;7.944;2024-01-27T06:47:34;9.67;;;5.00;;
16246;SDS011;8231;50.866;7.944;2024-01-27T06:50:03;5.70;;;2.87;;
16246;SDS011;8231;50.866;7.944;2024-01-27T06:52:32;10.57;;;3.43;;
16246;SDS011;8231;50.866;7.944;2024-01-27T06:55:00;6.37;;;3.83;;
16246;SDS011;8231;50.866;7.944;2024-01-27T06:57:31;6.70;;;4.00;;
16246;SDS011;8231;50.866;7.944;2024-01-27T06:59:59;10.17;;;3.63;;
16246;SDS011;8231;50.866;7.944;2024-01-27T07:02:29;11.93;;;3.07;;
16246;SDS011;8231;50.866;7.944;2024-01-27T07:04:57;7.47;;;2.80;;
16246;SDS011;8231;50.866;7.944;2024-01-27T07:07:26;12.40;;;3.13;;
16246;SDS011;8231;50.866;7.944;2024-01-27T07:09:55;8.57;;;3.00;;
16246;SDS011;8231;50.866;7.944;2024-01-27T07:12:23;5.07;;;3.07;;
16246;SDS011;8231;50.866;7.944;2024-01-27T07:14:52;10.27;;;3.57;;
16246;SDS011;8231;50.866;7.944;2024-01-27T07:17:23;9.30;;;3.50;;
16246;SDS011;8231;50.866;7.944;2024-01-27T07:19:53;15.83;;;3.37;;
16246;SDS011;8231;50.866;7.944;2024-01-27T07:22:22;7.63;;;3.77;;
16246;SDS011;8231;50.866;7.944;2024-01-27T07:24:50;7.47;;;3.70;;
16246;SDS011;8231;50.866;7.944;2024-01-27T07:27:18;8.23;;;3.90;;
16246;SDS011;8231;50.866;7.944;2024-01-27T07:29:48;8.03;;;3.53;;
16246;SDS011;8231;50.866;7.944;2024-01-27T07:32:16;5.93;;;3.17;;
16246;SDS011;8231;50.866;7.944;2024-01-27T07:34:44;9.00;;;4.37;;
16246;SDS011;8231;50.866;7.944;2024-01-27T07:37:14;6.73;;;4.27;;
16246;SDS011;8231;50.866;7.944;2024-01-27T07:39:42;7.63;;;3.67;;
16246;SDS011;8231;50.866;7.944;2024-01-27T07:42:10;7.43;;;5.43;;
16246;SDS011;8231;50.866;7.944;2024-01-27T07:44:38;6.60;;;3.67;;
16246;SDS011;8231;50.866;7.944;2024-01-27T07:47:06;15.43;;;5.03;;
16246;SDS011;8231;50.866;7.944;2024-01-27T07:49:35;11.73;;;4.77;;
16246;SDS011;8231;50.866;7.944;2024-01-27T07:52:03;10.90;;;4.87;;
16246;SDS011;8231;50.866;7.944;2024-01-27T07:54:34;6.13;;;4.77;;
16246;SDS011;8231;50.866;7.944;2024-01-27T07:57:05;10.10;;;4.47;;
16246;SDS011;8231;50.866;7.944;2024-01-27T07:59:34;8.97;;;4.27;;
16246;SDS011;8231;50.866;7.944;2024-01-27T08:02:02;10.10;;;4.23;;
16246;SDS011;8231;50.866;7.944;2024-01-27T08:04:31;9.00;;;3.67;;
16246;SDS011;8231;50.866;7.944;2024-01-27T08:06:59;8.67;;;3.77;;
16246;SDS011;8231;50.866;7.944;2024-01-27T08:09:34;12.47;;;3.50;;
16246;SDS011;8231;50.866;7.944;2024-01-27T08:12:02;6.00;;;3.60;;
16246;SDS011;8231;50.866;7.944;2024-01-27T08:14:31;13.20;;;3.63;;
16246;SDS011;8231;50.866;7.944;2024-01-27T08:17:00;7.07;;;3.80;;
16246;SDS011;8231;50.866;7.944;2024-01-27T08:19:29;7.43;;;2.70;;
16246;SDS011;8231;50.866;7.944;2024-01-27T08:21:58;11.43;;;3.80;;
16246;SDS011;8231;50.866;7.944;2024-01-27T08:24:26;6.97;;;3.23;;
16246;SDS011;8231;50.866;7.944;2024-01-27T08:26:55;11.43;;;3.93;;
16246;SDS011;8231;50.866;7.944;2024-01-27T08:29:24;7.80;;;3.80;;
16246;SDS011;8231;50.866;7.944;2024-01-27T08:31:51;12.20;;;4.40;;
16246;SDS011;8231;50.866;7.944;2024-01-27T08:34:19;10.43;;;3.77;;
16246;SDS011;8231;50.866;7.944;2024-01-27T08:36:47;10.77;;;3.70;;
16246;SDS011;8231;50.866;7.944;2024-01-27T08:39:15;7.70;;;3.83;;
16246;SDS011;8231;50.866;7.944;2024-01-27T08:41:43;12.60;;;4.03;;
16246;SDS011;8231;50.866;7.944;2024-01-27T08:44:13;8.43;;;3.93;;
16246;SDS011;8231;50.866;7.944;2024-01-27T08:46:41;7.97;;;3.20;;
16246;SDS011;8231;50.866;7.944;2024-01-27T08:49:09;6.77;;;3.13;;
16246;SDS011;8231;50.866;7.944;2024-01-27T08:51:37;8.83;;;3.67;;
16246;SDS011;8231;50.866;7.944;2024-01-27T08:54:06;6.27;;;3.37;;
16246;SDS011;8231;50.866;7.944;2024-01-27T08:56:34;9.87;;;3.60;;
16246;SDS011;8231;50.866;7.944;2024-01-27T08:59:07;7.83;;;4.07;;
16246;SDS011;8231;50.866;7.944;2024-01-27T09:01:37;7.70;;;3.77;;
16246;SDS011;8231;50.866;7.944;2024-01-27T09:04:05;10.73;;;4.30;;
16246;SDS011;8231;50.866;7.944;2024-01-27T09:06:34;16.47;;;4.73;;
16246;SDS011;8231;50.866;7.944;2024-01-27T09:09:02;6.90;;;4.00;;
16246;SDS011;8231;50.866;7.944;2024-01-27T09:11:30;6.67;;;3.20;;
16246;SDS011;8231;50.866;7.944;2024-01-27T09:14:00;8.53;;;3.97;;
16246;SDS011;8231;50.866;7.944;2024-01-27T09:16:29;10.03;;;4.00;;
16246;SDS011;8231;50.866;7.944;2024-01-27T09:18:58;9.53;;;3.77;;
16246;SDS011;8231;50.866;7.944;2024-01-27T09:21:27;10.80;;;4.50;;
16246;SDS011;8231;50.866;7.944;2024-01-27T09:23:57;12.83;;;5.87;;
16246;SDS011;8231;50.866;7.944;2024-01-27T09:26:27;16.37;;;6.40;;
16246;SDS011;8231;50.866;7.944;2024-01-27T09:28:56;11.80;;;5.63;;
16246;SDS011;8231;50.866;7.944;2024-01-27T09:31:24;10.47;;;6.80;;
16246;SDS011;8231;50.866;7.944;2024-01-27T09:33:53;9.90;;;5.83;;
16246;SDS011;8231;50.866;7.944;2024-01-27T09:36:24;11.17;;;5.87;;
16246;SDS011;8231;50.866;7.944;2024-01-27T09:38:52;10.70;;;6.13;;
16246;SDS011;8231;50.866;7.944;2024-01-27T09:41:21;12.33;;;6.90;;
16246;SDS011;8231;50.866;7.944;2024-01-27T09:43:49;11.10;;;6.80;;
16246;SDS011;8231;50.866;7.944;2024-01-27T09:46:18;12.63;;;6.00;;
16246;SDS011;8231;50.866;7.944;2024-01-27T09:48:47;8.13;;;5.60;;
16246;SDS011;8231;50.866;7.944;2024-01-27T09:51:16;15.10;;;6.87;;
16246;SDS011;8231;50.866;7.944;2024-01-27T09:53:45;10.67;;;5.00;;
16246;SDS011;8231;50.866;7.944;2024-01-27T09:56:14;10.97;;;5.57;;
16246;SDS011;8231;50.866;7.944;2024-01-27T09:58:45;9.60;;;4.70;;
16246;SDS011;8231;50.866;7.944;2024-01-27T10:01:16;7.73;;;4.67;;
16246;SDS011;8231;50.866;7.944;2024-01-27T10:03:46;15.97;;;5.57;;
16246;SDS011;8231;50.866;7.944;2024-01-27T10:06:15;13.50;;;5.00;;
16246;SDS011;8231;50.866;7.944;2024-01-27T10:08:43;12.00;;;5.17;;
16246;SDS011;8231;50.866;7.944;2024-01-27T10:11:19;10.83;;;5.50;;
16246;SDS011;8231;50.866;7.944;2024-01-27T10:13:53;9.27;;;5.93;;
16246;SDS011;8231;50.866;7.944;2024-01-27T10:16:25;12.43;;;7.23;;
16246;SDS011;8231;50.866;7.944;2024-01-27T10:19:01;19.53;;;7.70;;
16246;SDS011;8231;50.866;7.944;2024-01-27T10:21:30;9.20;;;6.63;;
16246;SDS011;8231;50.866;7.944;2024-01-27T10:24:00;10.63;;;5.90;;
16246;SDS011;8231;50.866;7.944;2024-01-27T10:26:32;9.63;;;5.63;;
16246;SDS011;8231;50.866;7.944;2024-01-27T10:29:01;9.27;;;5.83;;
16246;SDS011;8231;50.866;7.944;2024-01-27T10:31:30;8.93;;;5.53;;
16246;SDS011;8231;50.866;7.944;2024-01-27T10:33:59;14.47;;;5.97;;
16246;SDS011;8231;50.866;7.944;2024-01-27T10:36:40;10.30;;;5.23;;
16246;SDS011;8231;50.866;7.944;2024-01-27T10:39:17;10.63;;;4.90;;
16246;SDS011;8231;50.866;7.944;2024-01-27T10:41:48;7.23;;;3.87;;
16246;SDS011;8231;50.866;7.944;2024-01-27T10:44:17;8.57;;;4.40;;
16246;SDS011;8231;50.866;7.944;2024-01-27T10:46:47;11.80;;;4.87;;
16246;SDS011;8231;50.866;7.944;2024-01-27T10:49:16;12.40;;;4.80;;
16246;SDS011;8231;50.866;7.944;2024-01-27T10:51:46;15.32;;;4.93;;
16246;SDS011;8231;50.866;7.944;2024-01-27T10:54:23;11.25;;;5.03;;
16246;SDS011;8231;50.866;7.944;2024-01-27T10:56:53;19.33;;;4.90;;
16246;SDS011;8231;50.866;7.944;2024-01-27T10:59:26;7.93;;;4.25;;
16246;SDS011;8231;50.866;7.944;2024-01-27T11:01:54;11.65;;;4.45;;
16246;SDS011;8231;50.866;7.944;2024-01-27T11:04:24;5.38;;;3.28;;
16246;SDS011;8231;50.866;7.944;2024-01-27T11:06:53;11.00;;;3.92;;
16246;SDS011;8231;50.866;7.944;2024-01-27T11:09:25;11.80;;;3.95;;
16246;SDS011;8231;50.866;7.944;2024-01-27T11:11:55;7.85;;;3.25;;
16246;SDS011;8231;50.866;7.944;2024-01-27T11:14:23;5.82;;;2.97;;
16246;SDS011;8231;50.866;7.944;2024-01-27T11:16:54;12.02;;;3.33;;
16246;SDS011;8231;50.866;7.944;2024-01-27T11:19:23;9.15;;;3.42;;
16246;SDS011;8231;50.866;7.944;2024-01-27T11:21:59;12.63;;;4.85;;
16246;SDS011;8231;50.866;7.944;2024-01-27T11:24:29;13.80;;;4.10;;
16246;SDS011;8231;50.866;7.944;2024-01-27T11:27:01;13.00;;;5.07;;
16246;SDS011;8231;50.866;7.944;2024-01-27T11:29:30;8.70;;;2.83;;
16246;SDS011;8231;50.866;7.944;2024-01-27T11:32:00;9.20;;;2.90;;
16246;SDS011;8231;50.866;7.944;2024-01-27T11:34:40;8.50;;;3.05;;
16246;SDS011;8231;50.866;7.944;2024-01-27T11:37:11;11.27;;;2.92;;
16246;SDS011;8231;50.866;7.944;2024-01-27T11:39:42;5.43;;;2.72;;
16246;SDS011;8231;50.866;7.944;2024-01-27T11:42:11;10.30;;;3.85;;
16246;SDS011;8231;50.866;7.944;2024-01-27T11:44:41;9.80;;;2.60;;
16246;SDS011;8231;50.866;7.944;2024-01-27T11:47:13;10.00;;;2.63;;
16246;SDS011;8231;50.866;7.944;2024-01-27T11:49:42;9.85;;;2.97;;
16246;SDS011;8231;50.866;7.944;2024-01-27T11:52:11;17.75;;;3.80;;
16246;SDS011;8231;50.866;7.944;2024-01-27T11:54:40;7.65;;;2.42;;
16246;SDS011;8231;50.866;7.944;2024-01-27T11:57:09;11.25;;;3.22;;
16246;SDS011;8231;50.866;7.944;2024-01-27T11:59:37;11.27;;;2.97;;
16246;SDS011;8231;50.866;7.944;2024-01-27T12:02:05;7.50;;;2.67;;
16246;SDS011;8231;50.866;7.944;2024-01-27T12:04:34;9.23;;;2.78;;
16246;SDS011;8231;50.866;7.944;2024-01-27T12:07:02;9.93;;;3.08;;
16246;SDS011;8231;50.866;7.944;2024-01-27T12:09:31;11.18;;;3.03;;
16246;SDS011;8231;50.866;7.944;2024-01-27T12:12:01;13.18;;;3.38;;
16246;SDS011;8231;50.866;7.944;2024-01-27T12:14:37;7.43;;;2.75;;
16246;SDS011;8231;50.866;7.944;2024-01-27T12:17:08;10.07;;;2.95;;
16246;SDS011;8231;50.866;7.944;2024-01-27T12:19:37;10.75;;;3.35;;
16246;SDS011;8231;50.866;7.944;2024-01-27T12:22:19;6.75;;;2.60;;
16246;SDS011;8231;50.866;7.944;2024-01-27T12:24:49;6.10;;;2.78;;
16246;SDS011;8231;50.866;7.944;2024-01-27T12:27:19;10.85;;;3.08;;
16246;SDS011;8231;50.866;7.944;2024-01-27T12:29:47;11.18;;;2.63;;
16246;SDS011;8231;50.866;7.944;2024-01-27T12:32:17;10.43;;;2.42;;
16246;SDS011;8231;50.866;7.944;2024-01-27T12:34:45;11.70;;;3.08;;
16246;SDS011;8231;50.866;7.944;2024-01-27T12:37:14;7.63;;;2.53;;
16246;SDS011;8231;50.866;7.944;2024-01-27T12:39:43;7.88;;;3.10;;
16246;SDS011;8231;50.866;7.944;2024-01-27T12:42:12;10.65;;;2.38;;
16246;SDS011;8231;50.866;7.944;2024-01-27T12:44:42;8.93;;;3.47;;
16246;SDS011;8231;50.866;7.944;2024-01-27T12:47:10;10.38;;;2.80;;
16246;SDS011;8231;50.866;7.944;2024-01-27T12:49:39;8.25;;;3.35;;
16246;SDS011;8231;50.866;7.944;2024-01-27T12:52:08;9.77;;;2.83;;
16246;SDS011;8231;50.866;7.944;2024-01-27T12:54:36;5.63;;;2.40;;
16246;SDS011;8231;50.866;7.944;2024-01-27T12:57:04;5.32;;;2.40;;
16246;SDS011;8231;50.866;7.944;2024-01-27T12:59:34;12.32;;;2.58;;
16246;SDS011;8231;50.866;7.944;2024-01-27T13:02:03;7.93;;;2.38;;
16246;SDS011;8231;50.866;7.944;2024-01-27T13:04:31;7.90;;;2.50;;
16246;SDS011;8231;50.866;7.944;2024-01-27T13:07:00;4.28;;;1.95;;
16246;SDS011;8231;50.866;7.944;2024-01-27T13:09:28;8.23;;;2.35;;
16246;SDS011;8231;50.866;7.944;2024-01-27T13:11:56;8.02;;;1.90;;
16246;SDS011;8231;50.866;7.944;2024-01-27T13:14:24;10.70;;;2.38;;
16246;SDS011;8231;50.866;7.944;2024-01-27T13:16:52;7.90;;;2.45;;
16246;SDS011;8231;50.866;7.944;2024-01-27T13:19:22;5.20;;;2.05;;
16246;SDS011;8231;50.866;7.944;2024-01-27T13:21:51;6.95;;;2.55;;
16246;SDS011;8231;50.866;7.944;2024-01-27T13:24:19;5.53;;;1.88;;
16246;SDS011;8231;50.866;7.944;2024-01-27T13:26:48;5.78;;;2.45;;
16246;SDS011;8231;50.866;7.944;2024-01-27T13:29:16;7.38;;;2.58;;
16246;SDS011;8231;50.866;7.944;2024-01-27T13:31:44;10.50;;;2.00;;
16246;SDS011;8231;50.866;7.944;2024-01-27T13:34:13;8.35;;;2.35;;
16246;SDS011;8231;50.866;7.944;2024-01-27T13:36:43;5.60;;;2.15;;
16246;SDS011;8231;50.866;7.944;2024-01-27T13:39:11;7.45;;;2.00;;
16246;SDS011;8231;50.866;7.944;2024-01-27T13:41:40;7.45;;;2.42;;
16246;SDS011;8231;50.866;7.944;2024-01-27T13:44:08;8.95;;;3.30;;
16246;SDS011;8231;50.866;7.944;2024-01-27T13:46:36;7.00;;;2.55;;
16246;SDS011;8231;50.866;7.944;2024-01-27T13:49:04;7.63;;;2.75;;
16246;SDS011;8231;50.866;7.944;2024-01-27T13:51:33;8.95;;;2.83;;
16246;SDS011;8231;50.866;7.944;2024-01-27T13:54:02;7.97;;;3.20;;
16246;SDS011;8231;50.866;7.944;2024-01-27T13:56:31;8.45;;;2.47;;
16246;SDS011;8231;50.866;7.944;2024-01-27T13:58:59;5.20;;;2.03;;
16246;SDS011;8231;50.866;7.944;2024-01-27T14:01:27;6.78;;;2.45;;
16246;SDS011;8231;50.866;7.944;2024-01-27T14:03:56;7.00;;;2.65;;
16246;SDS011;8231;50.866;7.944;2024-01-27T14:06:24;10.00;;;2.90;;
16246;SDS011;8231;50.866;7.944;2024-01-27T14:08:52;9.32;;;3.33;;
16246;SDS011;8231;50.866;7.944;2024-01-27T14:11:22;7.97;;;2.30;;
16246;SDS011;8231;50.866;7.944;2024-01-27T14:13:50;7.32;;;2.50;;
16246;SDS011;8231;50.866;7.944;2024-01-27T14:16:18;5.63;;;2.15;;
16246;SDS011;8231;50.866;7.944;2024-01-27T14:18:47;10.60;;;2.20;;
16246;SDS011;8231;50.866;7.944;2024-01-27T14:21:15;6.22;;;2.33;;
16246;SDS011;8231;50.866;7.944;2024-01-27T14:23:44;6.10;;;2.28;;
16246;SDS011;8231;50.866;7.944;2024-01-27T14:26:12;4.53;;;1.98;;
16246;SDS011;8231;50.866;7.944;2024-01-27T14:28:43;4.97;;;2.45;;
16246;SDS011;8231;50.866;7.944;2024-01-27T14:31:12;8.40;;;2.63;;
16246;SDS011;8231;50.866;7.944;2024-01-27T14:33:41;7.88;;;2.40;;
16246;SDS011;8231;50.866;7.944;2024-01-27T14:36:10;8.80;;;3.05;;
16246;SDS011;8231;50.866;7.944;2024-01-27T14:38:39;6.68;;;2.45;;
16246;SDS011;8231;50.866;7.944;2024-01-27T14:41:08;4.53;;;1.92;;
16246;SDS011;8231;50.866;7.944;2024-01-27T14:43:38;7.03;;;2.45;;
16246;SDS011;8231;50.866;7.944;2024-01-27T14:46:07;4.25;;;2.17;;
16246;SDS011;8231;50.866;7.944;2024-01-27T14:48:36;8.93;;;2.67;;
16246;SDS011;8231;50.866;7.944;2024-01-27T14:51:04;6.03;;;2.10;;
16246;SDS011;8231;50.866;7.944;2024-01-27T14:53:33;9.48;;;2.40;;
16246;SDS011;8231;50.866;7.944;2024-01-27T14:56:02;5.55;;;2.00;;
16246;SDS011;8231;50.866;7.944;2024-01-27T14:58:31;7.00;;;2.30;;
16246;SDS011;8231;50.866;7.944;2024-01-27T15:00:59;6.32;;;2.42;;
16246;SDS011;8231;50.866;7.944;2024-01-27T15:03:29;4.50;;;1.88;;
16246;SDS011;8231;50.866;7.944;2024-01-27T15:05:57;4.93;;;1.67;;
16246;SDS011;8231;50.866;7.944;2024-01-27T15:08:26;5.15;;;2.03;;
16246;SDS011;8231;50.866;7.944;2024-01-27T15:10:54;4.35;;;2.30;;